sensor_id;sensor_type;location;lat;lon;timestamp;P1;durP1;ratioP1;P2;durP2;ratioP2
29236;SDS011;16266;50.866;4.398;2023-08-06T00:00:23;742.75;;;704.20;;
29236;SDS011;16266;50.866;4.398;2023-08-06T00:02:49;818.42;;;770.95;;
29236;SDS011;16266;50.866;4.398;2023-08-06T00:05:14;743.15;;;704.20;;
29236;SDS011;16266;50.866;4.398;2023-08-06T00:07:46;733.88;;;696.50;;
29236;SDS011;16266;50.866;4.398;2023-08-06T00:10:13;776.10;;;735.40;;
29236;SDS011;16266;50.866;4.398;2023-08-06T00:12:39;797.95;;;754.53;;
29236;SDS011;16266;50.866;4.398;2023-08-06T00:15:05;802.03;;;758.35;;
29236;SDS011;16266;50.866;4.398;2023-08-06T00:17:31;815.10;;;770.22;;
29236;SDS011;16266;50.866;4.398;2023-08-06T00:19:56;712.65;;;676.97;;
29236;SDS011;16266;50.866;4.398;2023-08-06T00:22:22;779.97;;;738.75;;
29236;SDS011;16266;50.866;4.398;2023-08-06T00:24:48;754.88;;;716.67;;
29236;SDS011;16266;50.866;4.398;2023-08-06T00:27:13;651.33;;;619.80;;
29236;SDS011;16266;50.866;4.398;2023-08-06T00:29:39;742.13;;;704.25;;
29236;SDS011;16266;50.866;4.398;2023-08-06T00:32:05;633.85;;;603.90;;
29236;SDS011;16266;50.866;4.398;2023-08-06T00:34:31;571.60;;;545.40;;
29236;SDS011;16266;50.866;4.398;2023-08-06T00:36:56;517.05;;;493.85;;
29236;SDS011;16266;50.866;4.398;2023-08-06T00:39:22;531.10;;;506.88;;
29236;SDS011;16266;50.866;4.398;2023-08-06T00:41:48;487.45;;;465.73;;
29236;SDS011;16266;50.866;4.398;2023-08-06T00:44:13;525.80;;;501.88;;
29236;SDS011;16266;50.866;4.398;2023-08-06T00:46:39;463.05;;;442.63;;
29236;SDS011;16266;50.866;4.398;2023-08-06T00:49:05;470.83;;;450.23;;
29236;SDS011;16266;50.866;4.398;2023-08-06T00:51:31;435.55;;;416.38;;
29236;SDS011;16266;50.866;4.398;2023-08-06T00:53:57;455.98;;;435.92;;
29236;SDS011;16266;50.866;4.398;2023-08-06T00:56:24;571.67;;;544.97;;
29236;SDS011;16266;50.866;4.398;2023-08-06T00:58:50;419.05;;;400.83;;
29236;SDS011;16266;50.866;4.398;2023-08-06T01:01:16;551.90;;;526.65;;
29236;SDS011;16266;50.866;4.398;2023-08-06T01:03:41;523.47;;;499.90;;
29236;SDS011;16266;50.866;4.398;2023-08-06T01:06:07;451.45;;;431.48;;
29236;SDS011;16266;50.866;4.398;2023-08-06T01:11:31;541.17;;;516.13;;
29236;SDS011;16266;50.866;4.398;2023-08-06T01:14:13;442.27;;;423.02;;
29236;SDS011;16266;50.866;4.398;2023-08-06T01:16:48;488.90;;;466.95;;
29236;SDS011;16266;50.866;4.398;2023-08-06T01:19:16;454.73;;;434.63;;
29236;SDS011;16266;50.866;4.398;2023-08-06T01:21:42;524.95;;;500.95;;
29236;SDS011;16266;50.866;4.398;2023-08-06T01:24:08;487.90;;;466.02;;
29236;SDS011;16266;50.866;4.398;2023-08-06T01:26:39;451.02;;;430.60;;
29236;SDS011;16266;50.866;4.398;2023-08-06T01:29:31;431.20;;;412.38;;
29236;SDS011;16266;50.866;4.398;2023-08-06T01:32:04;409.48;;;391.70;;
29236;SDS011;16266;50.866;4.398;2023-08-06T01:34:33;438.88;;;419.77;;
29236;SDS011;16266;50.866;4.398;2023-08-06T01:37:00;380.48;;;363.63;;
29236;SDS011;16266;50.866;4.398;2023-08-06T01:39:26;428.10;;;409.77;;
29236;SDS011;16266;50.866;4.398;2023-08-06T01:41:52;412.90;;;395.02;;
29236;SDS011;16266;50.866;4.398;2023-08-06T01:44:18;471.65;;;450.65;;
29236;SDS011;16266;50.866;4.398;2023-08-06T01:46:44;353.38;;;338.40;;
29236;SDS011;16266;50.866;4.398;2023-08-06T01:49:09;402.23;;;384.58;;
29236;SDS011;16266;50.866;4.398;2023-08-06T01:51:35;391.83;;;374.95;;
29236;SDS011;16266;50.866;4.398;2023-08-06T01:54:01;424.23;;;405.38;;
29236;SDS011;16266;50.866;4.398;2023-08-06T01:56:26;531.20;;;506.67;;
29236;SDS011;16266;50.866;4.398;2023-08-06T01:58:52;558.72;;;533.30;;
29236;SDS011;16266;50.866;4.398;2023-08-06T02:01:18;591.55;;;563.22;;
29236;SDS011;16266;50.866;4.398;2023-08-06T02:03:43;534.83;;;510.27;;
29236;SDS011;16266;50.866;4.398;2023-08-06T02:06:09;533.33;;;508.92;;
29236;SDS011;16266;50.866;4.398;2023-08-06T02:08:34;536.28;;;511.77;;
29236;SDS011;16266;50.866;4.398;2023-08-06T02:11:00;452.23;;;432.13;;
29236;SDS011;16266;50.866;4.398;2023-08-06T02:13:27;401.55;;;384.10;;
29236;SDS011;16266;50.866;4.398;2023-08-06T02:15:53;446.27;;;426.23;;
29236;SDS011;16266;50.866;4.398;2023-08-06T02:18:19;393.05;;;376.02;;
29236;SDS011;16266;50.866;4.398;2023-08-06T02:20:54;384.95;;;368.42;;
29236;SDS011;16266;50.866;4.398;2023-08-06T02:23:21;359.73;;;344.45;;
29236;SDS011;16266;50.866;4.398;2023-08-06T02:25:47;379.73;;;363.42;;
29236;SDS011;16266;50.866;4.398;2023-08-06T02:28:13;436.67;;;417.02;;
29236;SDS011;16266;50.866;4.398;2023-08-06T02:30:39;430.27;;;410.95;;
29236;SDS011;16266;50.866;4.398;2023-08-06T02:33:14;646.08;;;609.15;;
29236;SDS011;16266;50.866;4.398;2023-08-06T02:35:39;510.35;;;485.67;;
29236;SDS011;16266;50.866;4.398;2023-08-06T02:38:05;541.03;;;513.97;;
29236;SDS011;16266;50.866;4.398;2023-08-06T02:40:30;580.90;;;551.22;;
29236;SDS011;16266;50.866;4.398;2023-08-06T02:42:56;519.22;;;494.33;;
29236;SDS011;16266;50.866;4.398;2023-08-06T02:45:22;535.53;;;509.80;;
29236;SDS011;16266;50.866;4.398;2023-08-06T02:47:47;517.88;;;493.40;;
29236;SDS011;16266;50.866;4.398;2023-08-06T02:50:13;527.35;;;502.23;;
29236;SDS011;16266;50.866;4.398;2023-08-06T02:52:40;587.65;;;558.08;;
29236;SDS011;16266;50.866;4.398;2023-08-06T02:55:06;615.42;;;583.25;;
29236;SDS011;16266;50.866;4.398;2023-08-06T02:57:32;662.63;;;627.47;;
29236;SDS011;16266;50.866;4.398;2023-08-06T02:59:57;714.20;;;673.03;;
29236;SDS011;16266;50.866;4.398;2023-08-06T03:02:23;653.92;;;619.88;;
29236;SDS011;16266;50.866;4.398;2023-08-06T03:04:49;767.08;;;722.40;;
29236;SDS011;16266;50.866;4.398;2023-08-06T03:07:15;777.45;;;731.55;;
29236;SDS011;16266;50.866;4.398;2023-08-06T03:09:40;868.72;;;811.00;;
29236;SDS011;16266;50.866;4.398;2023-08-06T03:12:06;867.20;;;809.70;;
29236;SDS011;16266;50.866;4.398;2023-08-06T03:14:32;807.33;;;756.97;;
29236;SDS011;16266;50.866;4.398;2023-08-06T03:16:58;846.60;;;792.33;;
29236;SDS011;16266;50.866;4.398;2023-08-06T03:19:23;836.47;;;783.50;;
29236;SDS011;16266;50.866;4.398;2023-08-06T03:21:49;863.67;;;807.25;;
29236;SDS011;16266;50.866;4.398;2023-08-06T03:24:15;874.30;;;817.10;;
29236;SDS011;16266;50.866;4.398;2023-08-06T03:26:40;825.60;;;774.53;;
29236;SDS011;16266;50.866;4.398;2023-08-06T03:29:06;810.88;;;761.17;;
29236;SDS011;16266;50.866;4.398;2023-08-06T03:31:31;790.60;;;742.75;;
29236;SDS011;16266;50.866;4.398;2023-08-06T03:33:57;749.03;;;705.65;;
29236;SDS011;16266;50.866;4.398;2023-08-06T03:36:23;744.05;;;701.65;;
29236;SDS011;16266;50.866;4.398;2023-08-06T03:38:48;718.58;;;678.92;;
29236;SDS011;16266;50.866;4.398;2023-08-06T03:41:14;687.70;;;651.42;;
29236;SDS011;16266;50.866;4.398;2023-08-06T03:43:40;778.85;;;732.47;;
29236;SDS011;16266;50.866;4.398;2023-08-06T03:46:05;801.65;;;752.13;;
29236;SDS011;16266;50.866;4.398;2023-08-06T03:48:31;697.53;;;660.03;;
29236;SDS011;16266;50.866;4.398;2023-08-06T03:50:57;699.75;;;661.70;;
29236;SDS011;16266;50.866;4.398;2023-08-06T03:53:22;655.38;;;620.95;;
29236;SDS011;16266;50.866;4.398;2023-08-06T03:55:48;695.63;;;657.35;;
29236;SDS011;16266;50.866;4.398;2023-08-06T03:58:14;712.78;;;673.88;;
29236;SDS011;16266;50.866;4.398;2023-08-06T04:00:39;665.05;;;630.40;;
29236;SDS011;16266;50.866;4.398;2023-08-06T04:03:05;628.95;;;596.88;;
29236;SDS011;16266;50.866;4.398;2023-08-06T04:05:31;534.97;;;509.60;;
29236;SDS011;16266;50.866;4.398;2023-08-06T04:07:57;517.95;;;493.05;;
29236;SDS011;16266;50.866;4.398;2023-08-06T04:10:23;372.92;;;356.83;;
29236;SDS011;16266;50.866;4.398;2023-08-06T04:12:49;587.80;;;559.45;;
29236;SDS011;16266;50.866;4.398;2023-08-06T04:15:14;1999.90;;;999.90;;
29236;SDS011;16266;50.866;4.398;2023-08-06T04:17:40;1999.90;;;999.90;;
29236;SDS011;16266;50.866;4.398;2023-08-06T04:20:06;1999.90;;;999.90;;
29236;SDS011;16266;50.866;4.398;2023-08-06T04:22:32;1999.90;;;999.90;;
29236;SDS011;16266;50.866;4.398;2023-08-06T04:24:57;1999.90;;;999.90;;
29236;SDS011;16266;50.866;4.398;2023-08-06T04:27:23;1999.90;;;999.90;;
29236;SDS011;16266;50.866;4.398;2023-08-06T04:29:49;1999.90;;;999.90;;
29236;SDS011;16266;50.866;4.398;2023-08-06T04:32:14;1999.90;;;999.90;;
29236;SDS011;16266;50.866;4.398;2023-08-06T04:34:40;1999.90;;;999.90;;
29236;SDS011;16266;50.866;4.398;2023-08-06T04:37:06;1999.90;;;999.90;;
29236;SDS011;16266;50.866;4.398;2023-08-06T04:39:32;1999.90;;;999.90;;
29236;SDS011;16266;50.866;4.398;2023-08-06T04:41:57;1999.90;;;999.90;;
29236;SDS011;16266;50.866;4.398;2023-08-06T04:44:23;1999.90;;;999.90;;
29236;SDS011;16266;50.866;4.398;2023-08-06T04:46:49;1999.90;;;999.90;;
29236;SDS011;16266;50.866;4.398;2023-08-06T04:49:15;1999.90;;;999.90;;
29236;SDS011;16266;50.866;4.398;2023-08-06T04:51:40;1999.90;;;999.90;;
29236;SDS011;16266;50.866;4.398;2023-08-06T04:54:06;1999.90;;;999.90;;
29236;SDS011;16266;50.866;4.398;2023-08-06T04:56:32;1999.90;;;999.90;;
29236;SDS011;16266;50.866;4.398;2023-08-06T04:58:58;1999.90;;;999.90;;
29236;SDS011;16266;50.866;4.398;2023-08-06T05:01:24;1999.90;;;999.90;;
29236;SDS011;16266;50.866;4.398;2023-08-06T05:03:50;1999.90;;;999.90;;
29236;SDS011;16266;50.866;4.398;2023-08-06T05:06:16;1999.90;;;999.90;;
29236;SDS011;16266;50.866;4.398;2023-08-06T05:08:41;1999.90;;;999.90;;
29236;SDS011;16266;50.866;4.398;2023-08-06T05:11:07;1999.90;;;999.90;;
29236;SDS011;16266;50.866;4.398;2023-08-06T05:13:34;1999.90;;;999.90;;
29236;SDS011;16266;50.866;4.398;2023-08-06T05:15:59;1999.90;;;999.90;;
29236;SDS011;16266;50.866;4.398;2023-08-06T05:18:25;1999.90;;;999.90;;
29236;SDS011;16266;50.866;4.398;2023-08-06T05:20:51;1999.90;;;999.90;;
29236;SDS011;16266;50.866;4.398;2023-08-06T05:23:16;1999.90;;;999.90;;
29236;SDS011;16266;50.866;4.398;2023-08-06T05:25:42;1999.90;;;999.90;;
29236;SDS011;16266;50.866;4.398;2023-08-06T05:28:08;1999.90;;;999.90;;
29236;SDS011;16266;50.866;4.398;2023-08-06T05:30:33;1999.90;;;999.90;;
29236;SDS011;16266;50.866;4.398;2023-08-06T05:33:02;1999.90;;;999.90;;
29236;SDS011;16266;50.866;4.398;2023-08-06T05:35:27;1999.90;;;999.90;;
29236;SDS011;16266;50.866;4.398;2023-08-06T05:37:53;1999.90;;;999.90;;
29236;SDS011;16266;50.866;4.398;2023-08-06T05:40:19;1999.90;;;999.90;;
29236;SDS011;16266;50.866;4.398;2023-08-06T05:42:44;790.63;;;528.88;;
29236;SDS011;16266;50.866;4.398;2023-08-06T05:45:10;652.30;;;396.35;;
29236;SDS011;16266;50.866;4.398;2023-08-06T05:47:36;1999.90;;;999.90;;
29236;SDS011;16266;50.866;4.398;2023-08-06T05:50:01;660.30;;;403.73;;
29236;SDS011;16266;50.866;4.398;2023-08-06T05:52:28;616.95;;;362.38;;
29236;SDS011;16266;50.866;4.398;2023-08-06T05:54:54;222.13;;;213.23;;
29236;SDS011;16266;50.866;4.398;2023-08-06T05:57:20;1999.90;;;999.90;;
29236;SDS011;16266;50.866;4.398;2023-08-06T05:59:46;390.13;;;373.48;;
29236;SDS011;16266;50.866;4.398;2023-08-06T06:02:11;1999.90;;;999.90;;
29236;SDS011;16266;50.866;4.398;2023-08-06T06:04:37;1999.90;;;999.90;;
29236;SDS011;16266;50.866;4.398;2023-08-06T06:07:03;1999.90;;;999.90;;
29236;SDS011;16266;50.866;4.398;2023-08-06T06:09:29;1999.90;;;999.90;;
29236;SDS011;16266;50.866;4.398;2023-08-06T06:11:54;1999.90;;;999.90;;
29236;SDS011;16266;50.866;4.398;2023-08-06T06:14:20;939.08;;;668.25;;
29236;SDS011;16266;50.866;4.398;2023-08-06T06:16:46;1999.90;;;999.90;;
29236;SDS011;16266;50.866;4.398;2023-08-06T06:19:12;1999.90;;;999.90;;
29236;SDS011;16266;50.866;4.398;2023-08-06T06:21:38;640.70;;;608.95;;
29236;SDS011;16266;50.866;4.398;2023-08-06T06:24:04;653.85;;;620.75;;
29236;SDS011;16266;50.866;4.398;2023-08-06T06:26:31;1999.90;;;999.90;;
29236;SDS011;16266;50.866;4.398;2023-08-06T06:28:57;1999.90;;;999.90;;
29236;SDS011;16266;50.866;4.398;2023-08-06T06:31:23;1999.90;;;999.90;;
29236;SDS011;16266;50.866;4.398;2023-08-06T06:33:48;647.92;;;614.40;;
29236;SDS011;16266;50.866;4.398;2023-08-06T06:36:14;565.00;;;538.10;;
29236;SDS011;16266;50.866;4.398;2023-08-06T06:38:40;1999.90;;;999.90;;
29236;SDS011;16266;50.866;4.398;2023-08-06T06:41:05;547.55;;;522.17;;
29236;SDS011;16266;50.866;4.398;2023-08-06T06:43:31;1999.90;;;999.90;;
29236;SDS011;16266;50.866;4.398;2023-08-06T06:45:58;1999.90;;;999.90;;
29236;SDS011;16266;50.866;4.398;2023-08-06T06:48:27;1999.90;;;999.90;;
29236;SDS011;16266;50.866;4.398;2023-08-06T06:50:54;1999.90;;;999.90;;
29236;SDS011;16266;50.866;4.398;2023-08-06T06:53:21;1999.90;;;999.90;;
29236;SDS011;16266;50.866;4.398;2023-08-06T06:55:55;1999.90;;;999.90;;
29236;SDS011;16266;50.866;4.398;2023-08-06T06:58:26;1999.90;;;999.90;;
29236;SDS011;16266;50.866;4.398;2023-08-06T07:00:51;400.73;;;383.25;;
29236;SDS011;16266;50.866;4.398;2023-08-06T07:03:17;370.88;;;355.23;;
29236;SDS011;16266;50.866;4.398;2023-08-06T07:05:44;291.67;;;279.80;;
29236;SDS011;16266;50.866;4.398;2023-08-06T07:08:10;270.95;;;260.15;;
29236;SDS011;16266;50.866;4.398;2023-08-06T07:10:36;250.35;;;240.10;;
29236;SDS011;16266;50.866;4.398;2023-08-06T07:13:02;263.58;;;252.68;;
29236;SDS011;16266;50.866;4.398;2023-08-06T07:15:28;1999.90;;;999.90;;
29236;SDS011;16266;50.866;4.398;2023-08-06T07:17:54;1999.90;;;999.90;;
29236;SDS011;16266;50.866;4.398;2023-08-06T07:20:20;1999.90;;;999.90;;
29236;SDS011;16266;50.866;4.398;2023-08-06T07:22:46;305.63;;;292.92;;
29236;SDS011;16266;50.866;4.398;2023-08-06T07:25:12;324.38;;;310.92;;
29236;SDS011;16266;50.866;4.398;2023-08-06T07:27:38;745.30;;;485.25;;
29236;SDS011;16266;50.866;4.398;2023-08-06T07:30:04;361.42;;;346.20;;
29236;SDS011;16266;50.866;4.398;2023-08-06T07:32:30;325.80;;;312.02;;
29236;SDS011;16266;50.866;4.398;2023-08-06T07:34:56;351.63;;;336.85;;
29236;SDS011;16266;50.866;4.398;2023-08-06T07:37:25;1999.90;;;999.90;;
29236;SDS011;16266;50.866;4.398;2023-08-06T07:39:57;280.70;;;269.35;;
29236;SDS011;16266;50.866;4.398;2023-08-06T07:42:22;264.90;;;254.20;;
29236;SDS011;16266;50.866;4.398;2023-08-06T07:44:52;252.20;;;241.80;;
29236;SDS011;16266;50.866;4.398;2023-08-06T07:47:19;1999.90;;;999.90;;
29236;SDS011;16266;50.866;4.398;2023-08-06T07:49:44;264.65;;;253.90;;
29236;SDS011;16266;50.866;4.398;2023-08-06T07:52:10;1999.90;;;999.90;;
29236;SDS011;16266;50.866;4.398;2023-08-06T07:54:36;397.67;;;380.27;;
29236;SDS011;16266;50.866;4.398;2023-08-06T07:57:02;1999.90;;;999.90;;
29236;SDS011;16266;50.866;4.398;2023-08-06T07:59:28;484.73;;;462.75;;
29236;SDS011;16266;50.866;4.398;2023-08-06T08:01:53;434.67;;;414.92;;
29236;SDS011;16266;50.866;4.398;2023-08-06T08:04:19;455.25;;;434.38;;
29236;SDS011;16266;50.866;4.398;2023-08-06T08:06:46;371.67;;;355.58;;
29236;SDS011;16266;50.866;4.398;2023-08-06T08:09:12;391.95;;;374.48;;
29236;SDS011;16266;50.866;4.398;2023-08-06T08:11:39;342.75;;;327.70;;
29236;SDS011;16266;50.866;4.398;2023-08-06T08:14:05;336.30;;;322.20;;
29236;SDS011;16266;50.866;4.398;2023-08-06T08:16:31;341.40;;;326.02;;
29236;SDS011;16266;50.866;4.398;2023-08-06T08:18:57;345.75;;;329.92;;
29236;SDS011;16266;50.866;4.398;2023-08-06T08:21:22;383.48;;;365.67;;
29236;SDS011;16266;50.866;4.398;2023-08-06T08:23:49;498.35;;;474.85;;
29236;SDS011;16266;50.866;4.398;2023-08-06T08:26:15;427.55;;;409.83;;
29236;SDS011;16266;50.866;4.398;2023-08-06T08:28:42;369.73;;;354.17;;
29236;SDS011;16266;50.866;4.398;2023-08-06T08:31:11;408.65;;;391.10;;
29236;SDS011;16266;50.866;4.398;2023-08-06T08:33:37;391.63;;;374.97;;
29236;SDS011;16266;50.866;4.398;2023-08-06T08:36:03;471.65;;;451.13;;
29236;SDS011;16266;50.866;4.398;2023-08-06T08:38:32;490.30;;;468.67;;
29236;SDS011;16266;50.866;4.398;2023-08-06T08:40:58;522.05;;;498.70;;
29236;SDS011;16266;50.866;4.398;2023-08-06T08:43:23;349.00;;;334.35;;
29236;SDS011;16266;50.866;4.398;2023-08-06T08:45:50;440.30;;;421.15;;
29236;SDS011;16266;50.866;4.398;2023-08-06T08:48:17;486.63;;;465.13;;
29236;SDS011;16266;50.866;4.398;2023-08-06T08:50:45;400.15;;;383.23;;
29236;SDS011;16266;50.866;4.398;2023-08-06T08:53:15;792.47;;;530.33;;
29236;SDS011;16266;50.866;4.398;2023-08-06T08:55:42;171.50;;;164.63;;
29236;SDS011;16266;50.866;4.398;2023-08-06T08:58:10;199.95;;;192.10;;
29236;SDS011;16266;50.866;4.398;2023-08-06T09:00:35;236.90;;;227.07;;
29236;SDS011;16266;50.866;4.398;2023-08-06T09:03:02;239.85;;;230.23;;
29236;SDS011;16266;50.866;4.398;2023-08-06T09:05:31;255.73;;;245.32;;
29236;SDS011;16266;50.866;4.398;2023-08-06T09:08:04;322.10;;;308.73;;
29236;SDS011;16266;50.866;4.398;2023-08-06T09:10:30;503.17;;;481.05;;
29236;SDS011;16266;50.866;4.398;2023-08-06T09:12:56;528.05;;;505.23;;
29236;SDS011;16266;50.866;4.398;2023-08-06T09:15:26;398.90;;;382.02;;
29236;SDS011;16266;50.866;4.398;2023-08-06T09:17:53;345.60;;;330.70;;
29236;SDS011;16266;50.866;4.398;2023-08-06T09:20:19;300.13;;;287.60;;
29236;SDS011;16266;50.866;4.398;2023-08-06T09:22:45;350.13;;;335.17;;
29236;SDS011;16266;50.866;4.398;2023-08-06T09:25:13;385.75;;;368.50;;
29236;SDS011;16266;50.866;4.398;2023-08-06T09:27:47;484.50;;;461.13;;
29236;SDS011;16266;50.866;4.398;2023-08-06T09:30:13;632.35;;;599.85;;
29236;SDS011;16266;50.866;4.398;2023-08-06T09:32:57;664.67;;;626.95;;
29236;SDS011;16266;50.866;4.398;2023-08-06T09:35:23;430.08;;;411.20;;
29236;SDS011;16266;50.866;4.398;2023-08-06T09:37:49;600.72;;;571.88;;
29236;SDS011;16266;50.866;4.398;2023-08-06T09:40:28;686.63;;;651.38;;
29236;SDS011;16266;50.866;4.398;2023-08-06T09:42:56;742.25;;;701.58;;
29236;SDS011;16266;50.866;4.398;2023-08-06T09:45:22;734.70;;;694.15;;
29236;SDS011;16266;50.866;4.398;2023-08-06T09:47:55;751.70;;;709.35;;
29236;SDS011;16266;50.866;4.398;2023-08-06T09:50:21;586.30;;;557.75;;
29236;SDS011;16266;50.866;4.398;2023-08-06T09:52:48;683.67;;;647.15;;
29236;SDS011;16266;50.866;4.398;2023-08-06T09:55:16;672.95;;;637.35;;
29236;SDS011;16266;50.866;4.398;2023-08-06T09:57:43;672.08;;;636.97;;
29236;SDS011;16266;50.866;4.398;2023-08-06T10:00:09;654.63;;;620.17;;
29236;SDS011;16266;50.866;4.398;2023-08-06T10:02:40;673.05;;;638.33;;
29236;SDS011;16266;50.866;4.398;2023-08-06T10:05:07;646.58;;;613.35;;
29236;SDS011;16266;50.866;4.398;2023-08-06T10:07:33;676.33;;;640.78;;
29236;SDS011;16266;50.866;4.398;2023-08-06T10:10:00;699.38;;;662.83;;
29236;SDS011;16266;50.866;4.398;2023-08-06T10:12:27;632.70;;;600.97;;
29236;SDS011;16266;50.866;4.398;2023-08-06T10:17:24;836.05;;;782.65;;
29236;SDS011;16266;50.866;4.398;2023-08-06T10:19:52;747.47;;;705.63;;
29236;SDS011;16266;50.866;4.398;2023-08-06T10:22:20;682.38;;;645.83;;
29236;SDS011;16266;50.866;4.398;2023-08-06T10:32:53;538.72;;;513.33;;
29236;SDS011;16266;50.866;4.398;2023-08-06T10:38:12;533.58;;;509.10;;
29236;SDS011;16266;50.866;4.398;2023-08-06T10:41:00;540.03;;;514.20;;
29236;SDS011;16266;50.866;4.398;2023-08-06T10:43:34;373.02;;;356.98;;
29236;SDS011;16266;50.866;4.398;2023-08-06T10:46:02;544.92;;;520.45;;
29236;SDS011;16266;50.866;4.398;2023-08-06T10:48:37;501.25;;;479.70;;
29236;SDS011;16266;50.866;4.398;2023-08-06T10:51:08;343.05;;;329.23;;
29236;SDS011;16266;50.866;4.398;2023-08-06T10:53:35;311.13;;;298.52;;
29236;SDS011;16266;50.866;4.398;2023-08-06T10:56:01;687.55;;;429.45;;
29236;SDS011;16266;50.866;4.398;2023-08-06T10:58:36;1999.90;;;999.90;;
29236;SDS011;16266;50.866;4.398;2023-08-06T11:01:02;1999.90;;;999.90;;
29236;SDS011;16266;50.866;4.398;2023-08-06T11:03:28;1999.90;;;999.90;;
29236;SDS011;16266;50.866;4.398;2023-08-06T11:05:54;343.48;;;328.00;;
29236;SDS011;16266;50.866;4.398;2023-08-06T11:08:26;392.25;;;374.08;;
29236;SDS011;16266;50.866;4.398;2023-08-06T11:10:52;769.85;;;507.40;;
29236;SDS011;16266;50.866;4.398;2023-08-06T11:13:18;308.30;;;294.65;;
29236;SDS011;16266;50.866;4.398;2023-08-06T11:15:44;790.85;;;526.90;;
29236;SDS011;16266;50.866;4.398;2023-08-06T11:18:10;336.52;;;321.52;;
29236;SDS011;16266;50.866;4.398;2023-08-06T11:20:37;297.10;;;284.30;;
29236;SDS011;16266;50.866;4.398;2023-08-06T11:23:03;288.20;;;276.10;;
29236;SDS011;16266;50.866;4.398;2023-08-06T11:25:29;277.35;;;266.02;;
29236;SDS011;16266;50.866;4.398;2023-08-06T11:27:55;204.35;;;195.60;;
29236;SDS011;16266;50.866;4.398;2023-08-06T11:30:21;207.45;;;198.60;;
29236;SDS011;16266;50.866;4.398;2023-08-06T11:32:47;207.02;;;198.35;;
29236;SDS011;16266;50.866;4.398;2023-08-06T11:35:14;195.45;;;187.45;;
29236;SDS011;16266;50.866;4.398;2023-08-06T11:37:44;229.48;;;219.57;;
29236;SDS011;16266;50.866;4.398;2023-08-06T11:40:11;262.25;;;250.38;;
29236;SDS011;16266;50.866;4.398;2023-08-06T11:42:37;637.50;;;381.35;;
29236;SDS011;16266;50.866;4.398;2023-08-06T11:45:03;660.78;;;404.13;;
29236;SDS011;16266;50.866;4.398;2023-08-06T11:47:29;724.80;;;464.90;;
29236;SDS011;16266;50.866;4.398;2023-08-06T11:49:55;728.75;;;468.65;;
29236;SDS011;16266;50.866;4.398;2023-08-06T11:52:25;1999.90;;;999.90;;
29236;SDS011;16266;50.866;4.398;2023-08-06T11:55:03;326.08;;;311.42;;
29236;SDS011;16266;50.866;4.398;2023-08-06T11:57:33;830.92;;;566.55;;
29236;SDS011;16266;50.866;4.398;2023-08-06T12:00:09;1248.65;;;737.28;;
29236;SDS011;16266;50.866;4.398;2023-08-06T12:02:40;589.47;;;560.78;;
29236;SDS011;16266;50.866;4.398;2023-08-06T12:07:37;689.00;;;653.45;;
29236;SDS011;16266;50.866;4.398;2023-08-06T12:10:04;718.58;;;681.42;;
29236;SDS011;16266;50.866;4.398;2023-08-06T12:12:30;743.95;;;703.60;;
29236;SDS011;16266;50.866;4.398;2023-08-06T12:14:56;797.50;;;752.40;;
29236;SDS011;16266;50.866;4.398;2023-08-06T12:17:25;746.17;;;704.78;;
29236;SDS011;16266;50.866;4.398;2023-08-06T12:19:51;804.60;;;757.30;;
29236;SDS011;16266;50.866;4.398;2023-08-06T12:22:17;751.78;;;709.92;;
29236;SDS011;16266;50.866;4.398;2023-08-06T12:24:43;562.10;;;535.50;;
29236;SDS011;16266;50.866;4.398;2023-08-06T12:27:10;426.40;;;407.20;;
29236;SDS011;16266;50.866;4.398;2023-08-06T12:29:43;503.23;;;480.42;;
29236;SDS011;16266;50.866;4.398;2023-08-06T12:32:10;433.98;;;414.67;;
29236;SDS011;16266;50.866;4.398;2023-08-06T12:34:37;351.33;;;336.63;;
29236;SDS011;16266;50.866;4.398;2023-08-06T12:37:07;339.80;;;325.73;;
29236;SDS011;16266;50.866;4.398;2023-08-06T12:39:35;370.77;;;355.10;;
29236;SDS011;16266;50.866;4.398;2023-08-06T12:42:02;347.92;;;333.17;;
29236;SDS011;16266;50.866;4.398;2023-08-06T12:44:29;544.45;;;519.13;;
29236;SDS011;16266;50.866;4.398;2023-08-06T12:46:55;478.30;;;457.13;;
29236;SDS011;16266;50.866;4.398;2023-08-06T12:49:21;441.25;;;421.95;;
29236;SDS011;16266;50.866;4.398;2023-08-06T12:51:50;405.00;;;387.48;;
29236;SDS011;16266;50.866;4.398;2023-08-06T12:54:16;278.25;;;266.45;;
29236;SDS011;16266;50.866;4.398;2023-08-06T12:56:45;224.50;;;215.48;;
29236;SDS011;16266;50.866;4.398;2023-08-06T12:59:13;235.73;;;226.18;;
29236;SDS011;16266;50.866;4.398;2023-08-06T13:01:40;303.48;;;290.73;;
29236;SDS011;16266;50.866;4.398;2023-08-06T13:04:06;428.38;;;409.17;;
29236;SDS011;16266;50.866;4.398;2023-08-06T13:06:32;420.73;;;402.25;;
29236;SDS011;16266;50.866;4.398;2023-08-06T13:09:10;360.55;;;344.80;;
29236;SDS011;16266;50.866;4.398;2023-08-06T13:11:37;417.30;;;398.73;;
29236;SDS011;16266;50.866;4.398;2023-08-06T13:14:05;410.48;;;392.40;;
29236;SDS011;16266;50.866;4.398;2023-08-06T13:16:35;359.77;;;344.33;;
29236;SDS011;16266;50.866;4.398;2023-08-06T13:19:02;364.90;;;349.23;;
29236;SDS011;16266;50.866;4.398;2023-08-06T13:21:37;279.42;;;268.10;;
29236;SDS011;16266;50.866;4.398;2023-08-06T13:24:27;382.98;;;366.40;;
29236;SDS011;16266;50.866;4.398;2023-08-06T13:26:53;453.45;;;432.95;;
29236;SDS011;16266;50.866;4.398;2023-08-06T13:29:19;277.33;;;266.20;;
29236;SDS011;16266;50.866;4.398;2023-08-06T13:31:45;282.38;;;270.65;;
29236;SDS011;16266;50.866;4.398;2023-08-06T13:34:11;328.92;;;315.35;;
29236;SDS011;16266;50.866;4.398;2023-08-06T13:36:36;265.80;;;255.20;;
29236;SDS011;16266;50.866;4.398;2023-08-06T13:39:02;286.73;;;274.88;;
29236;SDS011;16266;50.866;4.398;2023-08-06T13:41:28;314.00;;;300.83;;
29236;SDS011;16266;50.866;4.398;2023-08-06T13:43:54;258.35;;;247.95;;
29236;SDS011;16266;50.866;4.398;2023-08-06T13:46:20;251.70;;;241.57;;
29236;SDS011;16266;50.866;4.398;2023-08-06T13:48:46;285.42;;;273.83;;
29236;SDS011;16266;50.866;4.398;2023-08-06T13:51:13;374.13;;;358.10;;
29236;SDS011;16266;50.866;4.398;2023-08-06T13:53:39;301.42;;;288.88;;
29236;SDS011;16266;50.866;4.398;2023-08-06T13:56:06;356.38;;;341.75;;
29236;SDS011;16266;50.866;4.398;2023-08-06T13:58:32;753.65;;;493.23;;
29236;SDS011;16266;50.866;4.398;2023-08-06T14:00:58;1999.90;;;999.90;;
29236;SDS011;16266;50.866;4.398;2023-08-06T14:03:24;1999.90;;;999.90;;
29236;SDS011;16266;50.866;4.398;2023-08-06T14:05:50;1999.90;;;999.90;;
29236;SDS011;16266;50.866;4.398;2023-08-06T14:08:16;1999.90;;;999.90;;
29236;SDS011;16266;50.866;4.398;2023-08-06T14:10:45;1999.90;;;999.90;;